createdAt,value
2023-03-06T00:01:33.760Z,15.98
2023-03-06T00:04:00.493Z,14.60
2023-03-06T00:06:27.125Z,16.77
2023-03-06T00:08:54.522Z,16.25
2023-03-06T00:11:21.377Z,17.00
2023-03-06T00:13:48.001Z,20.98
2023-03-06T00:16:14.979Z,17.45
2023-03-06T00:18:43.921Z,18.08
2023-03-06T00:21:10.664Z,16.25
2023-03-06T00:23:37.320Z,19.25
2023-03-06T00:26:08.133Z,20.80
2023-03-06T00:28:35.525Z,20.23
2023-03-06T00:31:02.807Z,19.48
2023-03-06T00:33:29.974Z,19.50
2023-03-06T00:35:56.717Z,22.52
2023-03-06T00:38:23.383Z,19.75
2023-03-06T00:40:50.025Z,17.27
2023-03-06T00:43:16.640Z,18.30
2023-03-06T00:45:43.271Z,19.48
2023-03-06T00:48:11.171Z,20.98
2023-03-06T00:50:37.817Z,18.30
2023-03-06T00:53:04.519Z,21.92
2023-03-06T00:55:33.313Z,22.58
2023-03-06T00:57:59.945Z,25.30
2023-03-06T01:00:26.531Z,19.10
2023-03-06T01:02:53.667Z,20.13
2023-03-06T01:05:20.684Z,22.13
2023-03-06T01:07:47.498Z,20.98
2023-03-06T01:10:14.211Z,22.67
2023-03-06T01:12:40.830Z,19.40
2023-03-06T01:15:08.205Z,23.30
2023-03-06T01:17:34.848Z,18.98
2023-03-06T01:20:01.554Z,24.08
2023-03-06T01:22:28.240Z,24.80
2023-03-06T01:24:54.828Z,21.45
2023-03-06T01:27:21.598Z,25.25
2023-03-06T01:29:48.194Z,24.67
2023-03-06T01:32:14.830Z,24.45
2023-03-06T01:34:41.493Z,26.27
2023-03-06T01:37:08.128Z,24.98
2023-03-06T01:39:34.720Z,24.83
2023-03-06T01:42:01.423Z,27.58
2023-03-06T01:44:28.105Z,27.20
2023-03-06T01:46:54.942Z,25.80
2023-03-06T01:49:24.976Z,28.85
2023-03-06T01:51:59.623Z,28.95
2023-03-06T01:54:35.695Z,27.70
2023-03-06T01:57:33.653Z,29.08
2023-03-06T02:00:13.939Z,27.55
2023-03-06T02:02:44.468Z,26.35
2023-03-06T02:05:12.093Z,27.08
2023-03-06T02:07:41.268Z,27.85
2023-03-06T02:10:09.103Z,22.83
2023-03-06T02:12:37.486Z,25.45
2023-03-06T02:15:04.566Z,26.63
2023-03-06T02:17:33.797Z,26.33
2023-03-06T02:20:16.312Z,26.23
2023-03-06T02:22:56.964Z,26.38
2023-03-06T02:25:37.750Z,27.85
2023-03-06T02:28:06.597Z,27.27
2023-03-06T02:30:33.984Z,25.92
2023-03-06T02:33:00.760Z,27.77
2023-03-06T02:35:30.457Z,26.52
2023-03-06T02:38:02.362Z,26.65
2023-03-06T02:40:29.095Z,28.77
2023-03-06T02:42:57.880Z,27.83
2023-03-06T02:45:33.997Z,25.15
2023-03-06T02:48:00.613Z,31.05
2023-03-06T02:50:27.277Z,28.45
2023-03-06T02:52:53.942Z,26.48
2023-03-06T02:55:20.582Z,26.10
2023-03-06T02:57:47.338Z,28.75
2023-03-06T03:00:14.579Z,26.55
2023-03-06T03:02:41.862Z,25.55
2023-03-06T03:05:08.716Z,33.20
2023-03-06T03:07:36.071Z,25.48
2023-03-06T03:10:03.479Z,25.80
2023-03-06T03:12:30.136Z,24.58
2023-03-06T03:14:56.816Z,25.50
2023-03-06T03:17:24.092Z,27.55
2023-03-06T03:19:51.506Z,25.38
2023-03-06T03:22:18.711Z,30.05
2023-03-06T03:24:46.259Z,25.70
2023-03-06T03:27:13.453Z,29.45
2023-03-06T03:29:40.685Z,28.65
2023-03-06T03:32:07.738Z,32.05
2023-03-06T03:34:34.514Z,26.85
2023-03-06T03:37:01.265Z,26.40
2023-03-06T03:39:27.881Z,30.73
2023-03-06T03:41:54.686Z,27.52
2023-03-06T03:44:21.328Z,27.35
2023-03-06T03:46:48.025Z,28.05
2023-03-06T03:49:15.199Z,25.83
2023-03-06T03:51:41.793Z,28.10
2023-03-06T03:54:08.431Z,25.52
2023-03-06T03:56:35.474Z,27.83
2023-03-06T03:59:02.315Z,28.58
2023-03-06T04:01:29.319Z,25.25
2023-03-06T04:03:55.934Z,25.80
2023-03-06T04:06:22.646Z,22.10
2023-03-06T04:08:49.218Z,26.23
2023-03-06T04:11:16.171Z,25.05
2023-03-06T04:13:42.886Z,25.48
2023-03-06T04:16:09.585Z,22.85
2023-03-06T04:18:36.296Z,25.98
2023-03-06T04:21:03.036Z,24.77
2023-03-06T04:23:29.741Z,22.00
2023-03-06T04:25:56.381Z,23.88
2023-03-06T04:28:23.271Z,31.38
2023-03-06T04:30:50.034Z,24.98
2023-03-06T04:33:16.731Z,25.13
2023-03-06T04:35:43.405Z,22.60
2023-03-06T04:38:10.355Z,28.70
2023-03-06T04:40:37.573Z,24.48
2023-03-06T04:43:04.876Z,24.65
2023-03-06T04:45:32.777Z,27.15
2023-03-06T04:47:59.861Z,23.55
2023-03-06T04:50:28.315Z,29.48
2023-03-06T04:52:54.920Z,26.08
2023-03-06T04:55:21.556Z,23.63
2023-03-06T04:57:48.358Z,23.17
2023-03-06T05:00:18.293Z,25.52
2023-03-06T05:02:45.692Z,23.23
2023-03-06T05:05:14.072Z,24.25
2023-03-06T05:07:41.224Z,22.05
2023-03-06T05:10:15.798Z,26.75
2023-03-06T05:12:43.295Z,23.50
2023-03-06T05:15:11.413Z,24.90
2023-03-06T05:17:38.662Z,24.25
2023-03-06T05:20:07.313Z,23.83
2023-03-06T05:22:34.526Z,22.00
2023-03-06T05:25:01.418Z,21.45
2023-03-06T05:27:28.673Z,23.80
2023-03-06T05:29:55.667Z,25.58
2023-03-06T05:32:22.387Z,27.27
2023-03-06T05:34:49.670Z,24.30
2023-03-06T05:37:16.548Z,26.90
2023-03-06T05:39:43.483Z,20.73
2023-03-06T05:42:10.379Z,26.05
2023-03-06T05:44:37.869Z,23.05
2023-03-06T05:47:04.883Z,22.60
2023-03-06T05:49:33.623Z,22.80
2023-03-06T05:52:01.127Z,20.45
2023-03-06T05:54:27.833Z,22.50
2023-03-06T05:56:54.452Z,21.45
2023-03-06T05:59:21.018Z,20.08
2023-03-06T06:01:47.683Z,21.63
2023-03-06T06:04:14.928Z,19.85
2023-03-06T06:06:41.596Z,20.67
2023-03-06T06:09:08.185Z,22.73
2023-03-06T06:11:34.810Z,21.98
2023-03-06T06:14:01.438Z,17.98
2023-03-06T06:16:28.027Z,26.88
2023-03-06T06:18:54.650Z,20.92
2023-03-06T06:21:21.281Z,20.33
2023-03-06T06:23:47.908Z,22.77
2023-03-06T06:26:14.512Z,22.30
2023-03-06T06:28:41.132Z,20.58
2023-03-06T06:31:12.349Z,19.05
2023-03-06T06:33:40.359Z,22.33
2023-03-06T06:36:19.001Z,20.80
2023-03-06T06:38:45.674Z,19.60
2023-03-06T06:41:36.070Z,25.05
2023-03-06T06:43:59.676Z,17.00
2023-03-06T06:47:14.354Z,19.45
2023-03-06T06:49:14.962Z,21.88
2023-03-06T06:51:41.983Z,20.77
2023-03-06T06:54:09.929Z,21.55
2023-03-06T06:56:36.539Z,19.05
2023-03-06T06:59:16.215Z,18.92
2023-03-06T07:01:44.141Z,17.35
2023-03-06T07:04:14.134Z,19.02
2023-03-06T07:06:41.638Z,19.17
2023-03-06T07:09:08.255Z,18.70
2023-03-06T07:11:34.939Z,20.77
2023-03-06T07:14:01.990Z,20.58
2023-03-06T07:16:28.630Z,20.65
2023-03-06T07:18:55.351Z,21.55
2023-03-06T07:21:22.017Z,20.33
2023-03-06T07:23:48.630Z,20.02
2023-03-06T07:26:15.263Z,20.17
2023-03-06T07:28:51.965Z,20.38
2023-03-06T07:31:25.086Z,22.95
2023-03-06T07:33:53.367Z,18.63
2023-03-06T07:36:21.236Z,21.77
2023-03-06T07:38:48.127Z,18.92
2023-03-06T07:41:16.388Z,18.58
2023-03-06T07:43:44.583Z,19.17
2023-03-06T07:46:12.765Z,20.60
2023-03-06T07:48:40.068Z,18.50
2023-03-06T07:51:13.112Z,16.80
2023-03-06T07:53:39.745Z,20.60
2023-03-06T07:56:11.052Z,20.42
2023-03-06T07:58:40.307Z,22.00
2023-03-06T08:01:09.523Z,17.98
2023-03-06T08:03:36.548Z,17.92
2023-03-06T08:06:14.932Z,22.17
2023-03-06T08:08:43.052Z,19.83
2023-03-06T08:11:11.341Z,18.52
2023-03-06T08:13:38.608Z,21.10
2023-03-06T08:16:06.016Z,19.92
2023-03-06T08:18:33.194Z,20.00
2023-03-06T08:21:13.856Z,20.30
2023-03-06T08:23:41.064Z,19.48
2023-03-06T08:26:11.366Z,18.75
2023-03-06T08:28:38.352Z,21.10
2023-03-06T08:31:19.525Z,20.17
2023-03-06T08:33:46.249Z,22.17
2023-03-06T08:36:12.951Z,18.40
2023-03-06T08:38:39.559Z,20.70
2023-03-06T08:41:06.211Z,20.10
2023-03-06T08:43:33.690Z,17.95
2023-03-06T08:46:00.454Z,21.88
2023-03-06T08:48:27.133Z,24.65
2023-03-06T08:50:53.891Z,19.02
2023-03-06T08:53:22.751Z,20.00
2023-03-06T08:55:54.636Z,20.42
2023-03-06T08:58:21.279Z,17.73
2023-03-06T09:00:48.046Z,21.30
2023-03-06T09:03:14.814Z,22.55
2023-03-06T09:05:41.466Z,21.00
2023-03-06T09:08:08.287Z,18.85
2023-03-06T09:10:34.914Z,23.48
2023-03-06T09:13:01.603Z,23.00
2023-03-06T09:15:28.328Z,21.30
2023-03-06T09:17:55.010Z,20.55
2023-03-06T09:20:21.728Z,19.50
2023-03-06T09:22:48.521Z,18.35
2023-03-06T09:25:20.063Z,19.63
2023-03-06T09:27:51.372Z,19.02
2023-03-06T09:30:22.485Z,19.73
2023-03-06T09:32:49.108Z,18.67
2023-03-06T09:35:17.815Z,19.48
2023-03-06T09:37:45.468Z,18.65
2023-03-06T09:40:22.751Z,19.30
2023-03-06T09:42:49.471Z,20.33
2023-03-06T09:45:16.147Z,18.15
2023-03-06T09:47:51.974Z,20.40
2023-03-06T09:50:34.118Z,19.92
2023-03-06T09:53:22.633Z,18.08
2023-03-06T09:55:58.159Z,17.60
2023-03-06T09:58:28.168Z,19.85
2023-03-06T10:01:06.694Z,18.25
2023-03-06T10:03:59.518Z,14.77
2023-03-06T10:06:48.005Z,20.10
2023-03-06T10:09:17.588Z,18.42
2023-03-06T10:11:56.648Z,19.83
2023-03-06T10:14:48.410Z,18.45
2023-03-06T10:17:22.180Z,19.27
2023-03-06T10:19:49.359Z,19.20
2023-03-06T10:22:26.991Z,20.05
2023-03-06T10:25:02.652Z,20.15
2023-03-06T10:27:49.415Z,19.73
2023-03-06T10:30:46.628Z,15.88
2023-03-06T10:33:37.537Z,21.38
2023-03-06T10:36:04.800Z,18.15
2023-03-06T10:38:31.510Z,19.13
2023-03-06T10:41:11.905Z,18.10
2023-03-06T10:43:44.638Z,17.83
2023-03-06T10:46:27.756Z,17.88
2023-03-06T10:48:59.516Z,15.82
2023-03-06T10:51:27.862Z,15.63
2023-03-06T10:54:00.338Z,16.58
2023-03-06T10:56:29.953Z,15.10
2023-03-06T10:59:08.367Z,17.50
2023-03-06T11:01:35.813Z,18.95
2023-03-06T11:04:28.480Z,21.15
2023-03-06T11:07:16.206Z,16.60
2023-03-06T11:10:02.931Z,14.18
2023-03-06T11:12:34.570Z,16.73
2023-03-06T11:15:07.357Z,15.85
2023-03-06T11:17:47.684Z,15.23
2023-03-06T11:20:23.672Z,16.38
2023-03-06T11:22:56.716Z,14.50
2023-03-06T11:25:33.420Z,15.50
2023-03-06T11:28:08.584Z,15.20
2023-03-06T11:30:46.417Z,16.42
2023-03-06T11:33:36.614Z,14.18
2023-03-06T11:36:25.040Z,13.73
2023-03-06T11:38:53.781Z,16.20
2023-03-06T11:41:47.815Z,13.88
2023-03-06T11:47:28.427Z,14.38
2023-03-06T11:50:27.856Z,13.82
2023-03-06T11:52:58.767Z,14.27
2023-03-06T11:55:50.177Z,16.48
2023-03-06T11:58:35.572Z,12.65
2023-03-06T12:01:24.985Z,15.38
2023-03-06T12:04:04.026Z,16.88
2023-03-06T12:06:43.692Z,14.10
2023-03-06T12:09:13.330Z,15.70
2023-03-06T12:12:09.444Z,15.50
2023-03-06T12:15:01.247Z,13.57
2023-03-06T12:17:46.969Z,15.35
2023-03-06T12:20:32.937Z,14.88
2023-03-06T12:23:18.130Z,19.33
2023-03-06T12:25:57.231Z,15.25
2023-03-06T12:28:58.971Z,16.65
2023-03-06T12:31:51.210Z,15.77
2023-03-06T12:34:26.631Z,14.80
2023-03-06T12:37:14.187Z,13.50
2023-03-06T12:39:43.963Z,14.70
2023-03-06T12:42:38.597Z,14.55
2023-03-06T12:45:33.059Z,14.02
2023-03-06T12:48:00.799Z,15.98
2023-03-06T12:50:29.503Z,15.68
2023-03-06T12:53:02.531Z,15.82
2023-03-06T12:55:42.299Z,14.63
2023-03-06T12:58:31.008Z,15.63
2023-03-06T13:01:36.356Z,15.93
2023-03-06T13:04:19.829Z,14.57
2023-03-06T13:07:16.777Z,17.05
2023-03-06T13:09:58.378Z,12.35
2023-03-06T13:12:55.995Z,15.73
2023-03-06T13:15:40.198Z,15.55
2023-03-06T13:18:21.941Z,14.43
2023-03-06T13:20:50.221Z,12.38
2023-03-06T13:23:51.035Z,17.30
2023-03-06T13:26:26.638Z,15.55
2023-03-06T13:28:55.035Z,14.07
2023-03-06T13:31:33.779Z,14.90
2023-03-06T13:34:06.170Z,13.55
2023-03-06T13:36:39.398Z,13.27
2023-03-06T13:39:10.347Z,14.02
2023-03-06T13:41:52.349Z,15.35
2023-03-06T13:44:25.026Z,12.30
2023-03-06T13:47:05.562Z,13.15
2023-03-06T13:49:33.182Z,18.33
2023-03-06T13:52:02.504Z,16.90
2023-03-06T13:55:13.141Z,17.92
2023-03-06T13:58:05.389Z,15.93
2023-03-06T14:01:03.296Z,17.95
2023-03-06T14:03:56.022Z,17.95
2023-03-06T14:06:34.988Z,17.08
2023-03-06T14:09:04.364Z,15.82
2023-03-06T14:11:32.273Z,15.40
2023-03-06T14:13:59.699Z,16.73
2023-03-06T14:16:32.693Z,16.45
2023-03-06T14:19:08.469Z,14.80
2023-03-06T14:21:47.628Z,16.05
2023-03-06T14:24:16.835Z,17.25
2023-03-06T14:26:46.505Z,17.33
2023-03-06T14:29:25.095Z,15.50
2023-03-06T14:31:53.892Z,16.90
2023-03-06T14:34:25.313Z,16.98
2023-03-06T14:36:58.067Z,17.63
2023-03-06T14:39:43.043Z,16.60
2023-03-06T14:42:15.732Z,16.45
2023-03-06T14:44:42.907Z,17.63
2023-03-06T14:47:24.789Z,16.17
2023-03-06T14:50:19.296Z,16.73
2023-03-06T14:52:46.356Z,14.90
2023-03-06T14:55:22.072Z,14.90
2023-03-06T14:58:02.388Z,15.80
2023-03-06T15:00:38.097Z,11.95
2023-03-06T15:03:18.761Z,13.75
2023-03-06T15:05:46.991Z,13.77
2023-03-06T15:08:19.723Z,15.25
2023-03-06T15:10:59.454Z,15.95
2023-03-06T15:13:28.779Z,14.13
2023-03-06T15:15:59.911Z,14.70
2023-03-06T15:18:29.691Z,13.57
2023-03-06T15:21:08.342Z,15.05
2023-03-06T15:23:35.398Z,14.48
2023-03-06T15:26:19.429Z,14.98
2023-03-06T15:29:08.206Z,15.63
2023-03-06T15:31:40.553Z,16.08
2023-03-06T15:34:07.238Z,14.68
2023-03-06T15:36:42.457Z,18.35
2023-03-06T15:39:32.325Z,17.75
2023-03-06T15:42:23.319Z,16.52
2023-03-06T15:44:53.181Z,18.90
2023-03-06T15:47:20.564Z,19.15
2023-03-06T15:49:51.815Z,15.75
2023-03-06T15:52:20.269Z,18.23
2023-03-06T15:54:47.146Z,19.98
2023-03-06T15:57:23.682Z,18.15
2023-03-06T15:59:51.183Z,19.23
2023-03-06T16:02:20.175Z,22.20
2023-03-06T16:04:48.077Z,20.30
2023-03-06T16:07:15.198Z,20.27
2023-03-06T16:09:42.601Z,20.67
2023-03-06T16:12:18.007Z,19.73
2023-03-06T16:14:47.247Z,18.92
2023-03-06T16:17:14.361Z,17.20
2023-03-06T16:19:41.141Z,18.25
2023-03-06T16:22:08.421Z,16.63
2023-03-06T16:24:35.077Z,17.13
2023-03-06T16:27:02.439Z,19.23
2023-03-06T16:29:29.725Z,18.73
2023-03-06T16:31:57.726Z,16.10
2023-03-06T16:34:24.911Z,16.67
2023-03-06T16:36:52.058Z,15.60
2023-03-06T16:39:21.384Z,14.80
2023-03-06T16:41:51.179Z,17.85
2023-03-06T16:44:18.280Z,16.05
2023-03-06T16:46:47.177Z,14.98
2023-03-06T16:49:20.926Z,17.40
2023-03-06T16:51:47.931Z,15.30
2023-03-06T16:54:14.587Z,16.13
2023-03-06T16:56:41.760Z,16.83
2023-03-06T16:59:08.710Z,15.93
2023-03-06T17:01:35.544Z,18.00
2023-03-06T17:04:02.562Z,17.08
2023-03-06T17:06:30.141Z,14.02
2023-03-06T17:08:58.040Z,15.98
2023-03-06T17:11:24.979Z,14.88
2023-03-06T17:13:51.650Z,17.45
2023-03-06T17:16:18.385Z,15.20
2023-03-06T17:18:45.710Z,17.83
2023-03-06T17:21:17.333Z,16.35
2023-03-06T17:23:44.690Z,18.40
2023-03-06T17:26:18.706Z,15.63
2023-03-06T17:28:45.943Z,16.40
2023-03-06T17:31:14.365Z,16.02
2023-03-06T17:33:41.347Z,16.40
2023-03-06T17:36:09.004Z,15.48
2023-03-06T17:38:36.429Z,16.35
2023-03-06T17:41:04.652Z,16.38
2023-03-06T17:43:31.869Z,15.60
2023-03-06T17:46:03.506Z,15.77
2023-03-06T17:48:30.228Z,17.67
2023-03-06T17:50:57.423Z,18.55
2023-03-06T17:53:24.227Z,15.77
2023-03-06T17:55:50.977Z,18.55
2023-03-06T17:58:17.671Z,16.88
2023-03-06T18:00:44.402Z,16.13
2023-03-06T18:03:11.049Z,18.45
2023-03-06T18:05:38.831Z,16.02
2023-03-06T18:08:08.251Z,17.35
2023-03-06T18:10:35.057Z,18.73
2023-03-06T18:13:01.672Z,17.55
2023-03-06T18:15:28.376Z,19.48
2023-03-06T18:17:56.624Z,16.23
2023-03-06T18:20:23.338Z,16.92
2023-03-06T18:22:49.994Z,18.48
2023-03-06T18:25:17.514Z,20.73
2023-03-06T18:27:44.148Z,17.00
2023-03-06T18:30:11.360Z,20.15
2023-03-06T18:32:38.283Z,18.00
2023-03-06T18:35:05.316Z,17.33
2023-03-06T18:37:31.911Z,18.35
2023-03-06T18:39:58.859Z,15.70
2023-03-06T18:42:26.158Z,21.00
2023-03-06T18:44:52.782Z,17.75
2023-03-06T18:47:19.417Z,17.10
2023-03-06T18:49:46.240Z,18.52
2023-03-06T18:52:12.912Z,19.30
2023-03-06T18:54:39.666Z,18.00
2023-03-06T18:57:06.409Z,19.98
2023-03-06T18:59:33.228Z,17.95
2023-03-06T19:01:59.953Z,17.25
2023-03-06T19:04:27.764Z,17.65
2023-03-06T19:06:54.952Z,19.23
2023-03-06T19:09:22.056Z,17.40
2023-03-06T19:11:49.135Z,16.10
2023-03-06T19:14:16.272Z,19.15
2023-03-06T19:16:43.177Z,17.90
2023-03-06T19:19:09.931Z,20.38
2023-03-06T19:21:36.555Z,19.63
2023-03-06T19:24:03.396Z,21.65
2023-03-06T19:26:30.044Z,18.77
2023-03-06T19:28:56.675Z,19.52
2023-03-06T19:31:26.162Z,20.42
2023-03-06T19:33:54.734Z,19.85
2023-03-06T19:36:27.406Z,20.17
2023-03-06T19:38:55.676Z,18.53
2023-03-06T19:41:22.300Z,20.27
2023-03-06T19:43:52.896Z,18.50
2023-03-06T19:46:20.751Z,18.88
2023-03-06T19:48:47.608Z,18.45
2023-03-06T19:51:14.531Z,19.33
2023-03-06T19:53:41.149Z,17.92
2023-03-06T19:56:11.227Z,17.20
2023-03-06T19:58:38.246Z,18.70
2023-03-06T20:01:11.025Z,17.58
2023-03-06T20:03:37.909Z,18.27
2023-03-06T20:06:08.898Z,16.10
2023-03-06T20:08:36.541Z,16.50
2023-03-06T20:11:03.996Z,18.02
2023-03-06T20:13:31.010Z,19.00
2023-03-06T20:16:01.659Z,16.55
2023-03-06T20:18:28.276Z,15.82
2023-03-06T20:20:59.809Z,17.55
2023-03-06T20:23:27.054Z,16.95
2023-03-06T20:25:53.938Z,15.90
2023-03-06T20:28:21.460Z,16.67
2023-03-06T20:30:48.086Z,17.25
2023-03-06T20:33:15.357Z,16.60
2023-03-06T20:35:42.727Z,14.85
2023-03-06T20:38:09.891Z,17.33
2023-03-06T20:40:38.583Z,15.77
2023-03-06T20:43:05.372Z,15.90
2023-03-06T20:45:32.317Z,16.83
2023-03-06T20:47:58.904Z,17.02
2023-03-06T20:50:26.190Z,16.33
2023-03-06T20:52:58.225Z,16.17
2023-03-06T20:55:24.973Z,17.10
2023-03-06T20:57:52.212Z,16.10
2023-03-06T21:00:20.872Z,15.23
2023-03-06T21:02:47.533Z,16.33
2023-03-06T21:05:14.285Z,16.25
2023-03-06T21:07:40.951Z,15.40
2023-03-06T21:10:08.582Z,15.70
2023-03-06T21:12:35.164Z,18.00
2023-03-06T21:15:01.864Z,16.00
2023-03-06T21:17:30.092Z,17.67
2023-03-06T21:19:58.295Z,18.83
2023-03-06T21:22:25.367Z,15.02
2023-03-06T21:24:52.015Z,17.30
2023-03-06T21:27:18.676Z,16.25
2023-03-06T21:29:45.592Z,15.85
2023-03-06T21:32:12.234Z,15.98
2023-03-06T21:34:38.919Z,17.88
2023-03-06T21:37:05.574Z,15.48
2023-03-06T21:39:32.201Z,18.17
2023-03-06T21:41:58.794Z,15.82
2023-03-06T21:44:25.438Z,14.88
2023-03-06T21:46:52.081Z,15.38
2023-03-06T21:49:22.817Z,16.45
2023-03-06T21:51:49.434Z,14.13
2023-03-06T21:54:16.068Z,16.50
2023-03-06T21:56:42.687Z,19.27
2023-03-06T21:59:09.303Z,14.55
2023-03-06T22:01:35.948Z,17.27
2023-03-06T22:04:02.617Z,14.23
2023-03-06T22:06:31.742Z,14.32
2023-03-06T22:09:00.030Z,15.00
2023-03-06T22:11:29.705Z,14.40
2023-03-06T22:13:57.858Z,17.05
2023-03-06T22:16:24.542Z,15.95
2023-03-06T22:18:52.018Z,15.35
2023-03-06T22:21:20.785Z,14.18
2023-03-06T22:23:51.517Z,14.10
2023-03-06T22:26:18.765Z,15.43
2023-03-06T22:28:45.903Z,18.55
2023-03-06T22:31:27.160Z,15.50
2023-03-06T22:33:55.773Z,17.25
2023-03-06T22:36:23.395Z,16.55
2023-03-06T22:38:54.577Z,18.38
2023-03-06T22:41:21.280Z,17.40
2023-03-06T22:43:47.867Z,21.05
2023-03-06T22:46:17.032Z,19.23
2023-03-06T22:48:44.395Z,19.40
2023-03-06T22:51:16.937Z,20.15
2023-03-06T22:53:43.895Z,19.38
2023-03-06T22:56:13.236Z,20.42
2023-03-06T22:58:40.318Z,23.25
2023-03-06T23:01:09.639Z,18.65
2023-03-06T23:03:37.889Z,21.10
2023-03-06T23:06:10.482Z,21.35
2023-03-06T23:08:37.547Z,20.30
2023-03-06T23:11:08.972Z,23.17
2023-03-06T23:13:36.051Z,23.15
2023-03-06T23:16:06.904Z,20.52
2023-03-06T23:18:34.806Z,23.65
2023-03-06T23:21:05.364Z,24.35
2023-03-06T23:23:31.998Z,21.85
2023-03-06T23:25:59.677Z,21.75
2023-03-06T23:28:26.639Z,22.02
2023-03-06T23:30:53.636Z,21.35
2023-03-06T23:33:20.338Z,22.42
2023-03-06T23:35:47.084Z,22.48
2023-03-06T23:38:14.168Z,19.25
2023-03-06T23:40:40.857Z,20.50
2023-03-06T23:43:07.739Z,21.88
2023-03-06T23:45:34.393Z,19.85
2023-03-06T23:48:00.994Z,21.17
2023-03-06T23:50:27.632Z,19.60
2023-03-06T23:52:55.022Z,21.67
2023-03-06T23:55:21.945Z,19.83
2023-03-06T23:57:48.586Z,21.98
